Terminal Aerodrome Forecast
Issued by NWS

Home | Current Version | Previous Version | Text Only | Print | Product List | Glossary On
Versions: 1 2 3 4 5 6 7 8 9 10 11 12 13 14 15 16 17 18 19 20 21 22 23 24 25 26 27 28 29 30 31 32 33
000
FTUS41 KBUF 040552
TAFJHW
TAF
KJHW 040552Z 0406/0506 VRB03KT 3SM BR SCT002 BKN250
      TEMPO 0406/0408 2SM BR BKN002
     FM040800 VRB03KT 1/2SM FG BKN003
     FM041400 11004KT P6SM BKN060
     FM041800 10006KT P6SM FEW040 SCT110
     FM042300 04004KT P6SM SCT200
     FM050400 12005KT P6SM SCT250
      AMD LTD TO CLD VIS AND WIND=

USA.gov is the U.S. government's official web portal to all federal, state and local government web resources and services.